createdAt,value
2019-03-20T00:01:26.488Z,24.25
2019-03-20T00:03:55.166Z,26.20
2019-03-20T00:06:23.849Z,23.27
2019-03-20T00:08:52.514Z,16.67
2019-03-20T00:11:21.171Z,20.02
2019-03-20T00:13:49.874Z,17.37
2019-03-20T00:16:18.591Z,24.05
2019-03-20T00:18:47.477Z,15.88
2019-03-20T00:21:16.111Z,21.17
2019-03-20T00:23:46.628Z,20.73
2019-03-20T00:26:15.499Z,11.70
2019-03-20T00:28:44.153Z,23.80
2019-03-20T00:31:14.428Z,21.77
2019-03-20T00:33:43.091Z,14.80
2019-03-20T00:36:12.078Z,11.80
2019-03-20T00:38:40.711Z,12.70
2019-03-20T00:41:09.376Z,9.83
2019-03-20T00:43:38.009Z,18.90
2019-03-20T00:46:06.684Z,14.10
2019-03-20T00:48:35.376Z,19.30
2019-03-20T00:51:04.427Z,14.30
2019-03-20T00:53:33.055Z,14.97
2019-03-20T00:56:01.705Z,17.03
2019-03-20T00:58:30.333Z,17.57
2019-03-20T01:00:58.995Z,23.73
2019-03-20T01:03:27.653Z,17.57
2019-03-20T01:05:56.288Z,17.07
2019-03-20T01:08:24.932Z,18.87
2019-03-20T01:10:53.640Z,19.33
2019-03-20T01:13:22.279Z,17.27
2019-03-20T01:15:51.008Z,18.62
2019-03-20T01:18:19.668Z,14.38
2019-03-20T01:20:48.552Z,23.12
2019-03-20T01:23:17.192Z,13.35
2019-03-20T01:25:45.887Z,14.47
2019-03-20T01:28:14.537Z,16.10
2019-03-20T01:30:43.219Z,16.27
2019-03-20T01:33:12.096Z,24.65
2019-03-20T01:35:40.906Z,13.72
2019-03-20T01:38:09.898Z,17.00
2019-03-20T01:40:40.369Z,14.38
2019-03-20T01:43:09.585Z,18.87
2019-03-20T01:45:38.299Z,17.48
2019-03-20T01:48:07.109Z,15.98
2019-03-20T01:50:35.814Z,20.10
2019-03-20T01:53:04.632Z,13.88
2019-03-20T01:55:33.259Z,11.97
2019-03-20T01:58:02.015Z,14.87
2019-03-20T02:00:30.856Z,19.05
2019-03-20T02:02:59.588Z,19.60
2019-03-20T02:05:35.649Z,13.08
2019-03-20T02:07:58.877Z,16.10
2019-03-20T02:10:27.626Z,14.43
2019-03-20T02:12:58.575Z,18.80
2019-03-20T02:15:37.706Z,14.85
2019-03-20T02:17:57.519Z,16.97
2019-03-20T02:20:26.180Z,16.30
2019-03-20T02:22:54.845Z,15.03
2019-03-20T02:25:23.509Z,14.18
2019-03-20T02:27:52.201Z,16.00
2019-03-20T02:30:21.019Z,18.40
2019-03-20T02:32:49.789Z,15.80
2019-03-20T02:35:18.676Z,17.48
2019-03-20T02:37:47.347Z,21.55
2019-03-20T02:40:16.069Z,18.98
2019-03-20T02:42:44.853Z,15.78
2019-03-20T02:45:13.733Z,15.75
2019-03-20T02:47:42.457Z,20.90
2019-03-20T02:50:11.197Z,23.25
2019-03-20T02:52:39.942Z,17.73
2019-03-20T02:55:08.683Z,13.32
2019-03-20T02:57:37.435Z,12.15
2019-03-20T03:00:07.500Z,18.35
2019-03-20T03:02:36.194Z,20.57
2019-03-20T03:05:05.434Z,18.80
2019-03-20T03:07:34.121Z,17.95
2019-03-20T03:10:02.851Z,10.82
2019-03-20T03:12:31.512Z,20.70
2019-03-20T03:15:00.389Z,20.25
2019-03-20T03:17:29.210Z,16.48
2019-03-20T03:19:57.864Z,14.75
2019-03-20T03:22:26.525Z,12.88
2019-03-20T03:24:55.190Z,19.17
2019-03-20T03:27:23.878Z,23.52
2019-03-20T03:29:52.535Z,17.17
2019-03-20T03:32:21.247Z,15.25
2019-03-20T03:34:49.923Z,21.07
2019-03-20T03:37:18.808Z,16.57
2019-03-20T03:39:47.480Z,25.80
2019-03-20T03:42:16.166Z,24.05
2019-03-20T03:44:44.843Z,18.25
2019-03-20T03:47:13.534Z,20.48
2019-03-20T03:49:42.212Z,14.58
2019-03-20T03:52:10.893Z,15.38
2019-03-20T03:54:39.688Z,27.07
2019-03-20T03:57:08.444Z,15.60
2019-03-20T03:59:37.368Z,20.23
2019-03-20T04:02:06.036Z,15.88
2019-03-20T04:04:34.756Z,18.12
2019-03-20T04:07:03.432Z,19.15
2019-03-20T04:09:32.125Z,17.00
2019-03-20T04:12:01.039Z,9.50
2019-03-20T04:14:29.731Z,12.58
2019-03-20T04:16:58.649Z,17.32
2019-03-20T04:19:27.312Z,23.62
2019-03-20T04:21:56.030Z,21.75
2019-03-20T04:24:24.730Z,20.92
2019-03-20T04:26:53.380Z,19.55
2019-03-20T04:29:22.042Z,21.68
2019-03-20T04:31:50.707Z,17.70
2019-03-20T04:34:19.388Z,17.02
2019-03-20T04:36:48.371Z,17.55
2019-03-20T04:39:17.122Z,23.83
2019-03-20T04:41:45.912Z,13.83
2019-03-20T04:44:14.604Z,20.95
2019-03-20T04:46:43.268Z,17.92
2019-03-20T04:49:11.928Z,14.75
2019-03-20T04:51:40.589Z,28.55
2019-03-20T04:54:09.497Z,20.25
2019-03-20T04:56:38.366Z,19.07
2019-03-20T04:59:07.038Z,20.55
2019-03-20T05:01:35.680Z,23.45
2019-03-20T05:04:04.480Z,17.60
2019-03-20T05:06:33.132Z,14.23
2019-03-20T05:09:01.861Z,21.27
2019-03-20T05:11:30.513Z,26.55
2019-03-20T05:13:59.193Z,18.20
2019-03-20T05:16:27.865Z,15.88
2019-03-20T05:18:56.527Z,26.80
2019-03-20T05:21:25.437Z,25.35
2019-03-20T05:23:54.125Z,20.92
2019-03-20T05:26:22.776Z,24.07
2019-03-20T05:28:51.448Z,23.00
2019-03-20T05:31:20.483Z,18.75
2019-03-20T05:33:49.175Z,19.25
2019-03-20T05:36:17.795Z,28.42
2019-03-20T05:38:46.704Z,22.17
2019-03-20T05:41:15.697Z,27.70
2019-03-20T05:43:44.360Z,19.82
2019-03-20T05:46:13.040Z,19.42
2019-03-20T05:48:41.704Z,28.60
2019-03-20T05:51:10.360Z,24.12
2019-03-20T05:53:39.252Z,28.27
2019-03-20T05:56:07.960Z,27.35
2019-03-20T05:58:36.582Z,21.07
2019-03-20T06:01:05.261Z,29.30
2019-03-20T06:03:33.925Z,35.00
2019-03-20T06:06:02.612Z,28.38
2019-03-20T06:08:31.416Z,30.32
2019-03-20T06:11:00.100Z,27.93
2019-03-20T06:13:28.765Z,27.07
2019-03-20T06:15:57.408Z,24.47
2019-03-20T06:18:26.086Z,41.13
2019-03-20T06:20:54.741Z,37.03
2019-03-20T06:23:23.416Z,39.38
2019-03-20T06:25:52.138Z,25.20
2019-03-20T06:28:20.804Z,28.10
2019-03-20T06:30:49.465Z,40.43
2019-03-20T06:33:18.130Z,29.37
2019-03-20T06:35:46.795Z,33.15
2019-03-20T06:38:15.706Z,36.33
2019-03-20T06:40:44.396Z,34.63
2019-03-20T06:43:13.079Z,30.60
2019-03-20T06:45:41.764Z,35.75
2019-03-20T06:48:10.409Z,42.23
2019-03-20T06:50:39.099Z,42.30
2019-03-20T06:53:07.806Z,37.53
2019-03-20T06:55:36.472Z,41.68
2019-03-20T06:58:05.196Z,33.28
2019-03-20T07:00:52.134Z,45.13
2019-03-20T07:03:48.443Z,50.83
2019-03-20T07:06:33.394Z,41.13
2019-03-20T07:09:12.853Z,41.90
2019-03-20T07:11:41.699Z,39.20
2019-03-20T07:14:10.431Z,52.97
2019-03-20T07:16:39.089Z,42.53
2019-03-20T07:19:07.822Z,34.93
2019-03-20T07:21:36.449Z,36.20
2019-03-20T07:24:05.180Z,40.53
2019-03-20T07:26:33.840Z,37.37
2019-03-20T07:29:02.472Z,53.53
2019-03-20T07:31:31.396Z,45.00
2019-03-20T07:34:00.113Z,40.93
2019-03-20T07:36:28.837Z,44.87
2019-03-20T07:38:57.525Z,44.80
2019-03-20T07:41:26.180Z,45.53
2019-03-20T07:43:54.811Z,38.43
2019-03-20T07:46:23.482Z,42.13
2019-03-20T07:48:52.117Z,46.23
2019-03-20T07:51:20.765Z,49.50
2019-03-20T07:53:49.418Z,41.63
2019-03-20T07:56:18.076Z,58.13
2019-03-20T07:58:46.944Z,41.43
2019-03-20T08:01:15.599Z,44.30
2019-03-20T08:03:44.501Z,51.63
2019-03-20T08:06:13.332Z,38.97
2019-03-20T08:08:41.992Z,51.33
2019-03-20T08:11:10.676Z,35.47
2019-03-20T08:13:39.368Z,47.10
2019-03-20T08:16:08.087Z,42.50
2019-03-20T08:18:36.757Z,44.47
2019-03-20T08:21:05.401Z,40.23
2019-03-20T08:23:34.083Z,39.37
2019-03-20T08:26:02.746Z,36.93
2019-03-20T08:28:31.419Z,45.87
2019-03-20T08:31:00.116Z,43.93
2019-03-20T08:33:28.885Z,33.20
2019-03-20T08:35:57.544Z,40.97
2019-03-20T08:38:26.212Z,37.07
2019-03-20T08:40:54.896Z,34.77
2019-03-20T08:43:23.570Z,47.23
2019-03-20T08:45:52.200Z,35.30
2019-03-20T08:48:20.854Z,39.10
2019-03-20T08:50:49.503Z,38.93
2019-03-20T08:53:18.626Z,34.27
2019-03-20T08:55:47.239Z,25.80
2019-03-20T08:58:15.913Z,32.83
2019-03-20T09:00:44.548Z,25.40
2019-03-20T09:03:13.203Z,27.83
2019-03-20T09:05:42.072Z,29.00
2019-03-20T09:08:10.709Z,29.23
2019-03-20T09:10:39.378Z,29.13
2019-03-20T09:13:08.264Z,33.87
2019-03-20T09:15:37.003Z,23.07
2019-03-20T09:18:05.769Z,28.57
2019-03-20T09:20:34.500Z,30.83
2019-03-20T09:23:03.177Z,27.93
2019-03-20T09:25:31.827Z,20.30
2019-03-20T09:28:00.643Z,30.10
2019-03-20T09:30:29.284Z,25.90
2019-03-20T09:32:58.015Z,21.93
2019-03-20T09:35:26.661Z,19.07
2019-03-20T09:37:55.300Z,23.20
2019-03-20T09:40:24.127Z,23.90
2019-03-20T09:42:53.076Z,23.77
2019-03-20T09:45:21.771Z,20.33
2019-03-20T09:47:50.599Z,24.67
2019-03-20T09:50:19.501Z,17.70
2019-03-20T09:52:50.014Z,28.53
2019-03-20T09:55:18.929Z,24.37
2019-03-20T09:57:47.645Z,27.20
2019-03-20T10:00:20.836Z,25.97
2019-03-20T10:02:49.577Z,22.37
2019-03-20T10:05:18.409Z,23.77
2019-03-20T10:07:47.331Z,28.67
2019-03-20T10:10:17.440Z,24.80
2019-03-20T10:12:46.180Z,24.03
2019-03-20T10:15:15.583Z,22.43
2019-03-20T10:17:44.240Z,28.07
2019-03-20T10:20:14.564Z,27.47
2019-03-20T10:22:43.268Z,23.30
2019-03-20T10:25:12.115Z,24.10
2019-03-20T10:27:40.773Z,30.37
2019-03-20T10:30:12.856Z,31.10
2019-03-20T10:32:41.537Z,26.87
2019-03-20T10:35:10.476Z,25.50
2019-03-20T10:37:39.140Z,21.10
2019-03-20T10:40:09.849Z,27.40
2019-03-20T10:42:38.498Z,21.73
2019-03-20T10:45:08.209Z,20.53
2019-03-20T10:47:36.886Z,24.00
2019-03-20T10:50:07.267Z,26.00
2019-03-20T10:52:35.982Z,23.20
2019-03-20T10:55:05.164Z,22.07
2019-03-20T10:57:33.815Z,23.30
2019-03-20T11:00:02.479Z,26.50
2019-03-20T11:02:31.147Z,22.23
2019-03-20T11:04:59.818Z,23.97
2019-03-20T11:07:28.445Z,23.93
2019-03-20T11:09:57.107Z,28.30
2019-03-20T11:12:25.742Z,26.20
2019-03-20T11:14:54.400Z,25.33
2019-03-20T11:17:23.039Z,19.90
2019-03-20T11:19:51.767Z,25.87
2019-03-20T11:22:20.433Z,24.83
2019-03-20T11:24:49.096Z,24.20
2019-03-20T11:27:17.789Z,22.37
2019-03-20T11:29:46.524Z,24.30
2019-03-20T11:32:15.193Z,22.27
2019-03-20T11:34:44.024Z,24.30
2019-03-20T11:37:12.676Z,30.90
2019-03-20T11:39:41.323Z,22.67
2019-03-20T11:42:10.029Z,22.87
2019-03-20T11:44:38.695Z,26.37
2019-03-20T11:47:07.380Z,22.90
2019-03-20T11:49:36.068Z,27.13
2019-03-20T11:52:06.253Z,22.73
2019-03-20T11:54:35.093Z,20.90
2019-03-20T11:57:03.816Z,18.37
2019-03-20T11:59:32.511Z,21.80
2019-03-20T12:02:01.158Z,19.97
2019-03-20T12:04:29.855Z,22.63
2019-03-20T12:06:58.562Z,20.67
2019-03-20T12:09:27.314Z,21.20
2019-03-20T12:11:55.960Z,24.00
2019-03-20T12:14:24.644Z,24.57
2019-03-20T12:16:53.300Z,22.73
2019-03-20T12:19:21.968Z,21.03
2019-03-20T12:21:50.611Z,20.63
2019-03-20T12:24:19.290Z,20.83
2019-03-20T12:26:47.920Z,27.83
2019-03-20T12:29:16.592Z,21.13
2019-03-20T12:31:45.267Z,30.63
2019-03-20T12:34:13.945Z,21.03
2019-03-20T12:36:42.773Z,19.00
2019-03-20T12:39:11.543Z,21.30
2019-03-20T12:41:40.297Z,23.33
2019-03-20T12:44:08.978Z,20.60
2019-03-20T12:46:41.772Z,23.70
2019-03-20T12:49:08.006Z,20.60
2019-03-20T12:51:36.711Z,23.27
2019-03-20T12:54:05.442Z,27.70
2019-03-20T12:56:34.101Z,20.60
2019-03-20T12:59:02.739Z,17.10
2019-03-20T13:01:31.404Z,17.53
2019-03-20T13:04:00.036Z,20.57
2019-03-20T13:06:28.711Z,17.63
2019-03-20T13:08:57.428Z,22.77
2019-03-20T13:11:26.100Z,30.07
2019-03-20T13:13:54.768Z,23.00
2019-03-20T13:16:23.658Z,21.20
2019-03-20T13:18:52.341Z,20.87
2019-03-20T13:21:21.027Z,21.97
2019-03-20T13:23:49.696Z,24.83
2019-03-20T13:26:18.357Z,30.00
2019-03-20T13:28:47.000Z,21.70
2019-03-20T13:31:18.172Z,26.83
2019-03-20T13:33:49.047Z,23.87
2019-03-20T13:36:17.213Z,25.10
2019-03-20T13:38:45.863Z,19.37
2019-03-20T13:41:14.537Z,26.57
2019-03-20T13:43:43.212Z,23.60
2019-03-20T13:46:11.876Z,21.43
2019-03-20T13:48:40.531Z,21.70
2019-03-20T13:51:09.175Z,23.80
2019-03-20T13:53:38.069Z,32.43
2019-03-20T13:56:06.740Z,21.57
2019-03-20T13:58:35.399Z,20.80
2019-03-20T14:01:04.240Z,27.23
2019-03-20T14:03:32.896Z,22.63
2019-03-20T14:06:01.575Z,20.60
2019-03-20T14:08:30.535Z,21.27
2019-03-20T14:10:59.225Z,20.37
2019-03-20T14:13:27.873Z,23.37
2019-03-20T14:15:56.545Z,25.93
2019-03-20T14:18:25.282Z,18.90
2019-03-20T14:20:53.911Z,16.20
2019-03-20T14:23:22.791Z,19.60
2019-03-20T14:25:51.505Z,20.93
2019-03-20T14:28:20.173Z,20.63
2019-03-20T14:30:48.856Z,19.80
2019-03-20T14:33:18.277Z,15.00
2019-03-20T14:35:46.933Z,15.97
2019-03-20T14:38:15.568Z,20.07
2019-03-20T14:40:44.224Z,16.63
2019-03-20T14:43:13.158Z,14.43
2019-03-20T14:45:41.899Z,19.90
2019-03-20T14:48:10.568Z,25.23
2019-03-20T14:50:39.200Z,14.10
2019-03-20T14:53:07.866Z,14.23
2019-03-20T14:55:36.504Z,15.33
2019-03-20T14:58:05.254Z,20.00
2019-03-20T15:00:33.905Z,15.57
2019-03-20T15:03:02.573Z,11.33
2019-03-20T15:05:31.228Z,12.40
2019-03-20T15:07:59.914Z,15.53
2019-03-20T15:10:28.855Z,16.70
2019-03-20T15:12:57.798Z,16.73
2019-03-20T15:15:38.585Z,15.47
2019-03-20T15:18:07.331Z,14.33
2019-03-20T15:20:36.127Z,14.87
2019-03-20T15:23:05.034Z,21.27
2019-03-20T15:25:33.674Z,17.63
2019-03-20T15:28:02.339Z,16.03
2019-03-20T15:30:31.027Z,10.50
2019-03-20T15:32:59.717Z,14.23
2019-03-20T15:35:28.409Z,16.33
2019-03-20T15:37:57.064Z,14.63
2019-03-20T15:40:25.739Z,12.90
2019-03-20T15:42:54.409Z,17.07
2019-03-20T15:45:23.272Z,21.30
2019-03-20T15:47:52.152Z,15.03
2019-03-20T15:50:20.832Z,15.87
2019-03-20T15:52:49.524Z,13.53
2019-03-20T15:55:21.273Z,12.60
2019-03-20T15:57:49.934Z,12.13
2019-03-20T16:00:18.825Z,13.63
2019-03-20T16:02:48.309Z,10.90
2019-03-20T16:05:17.096Z,14.20
2019-03-20T16:07:45.752Z,13.53
2019-03-20T16:10:18.843Z,12.13
2019-03-20T16:12:47.559Z,15.40
2019-03-20T16:15:17.696Z,16.37
2019-03-20T16:17:46.490Z,17.13
2019-03-20T16:20:15.305Z,18.70
2019-03-20T16:22:44.068Z,19.43
2019-03-20T16:25:13.601Z,10.83
2019-03-20T16:27:42.253Z,14.60
2019-03-20T16:30:13.773Z,11.50
2019-03-20T16:32:42.453Z,12.27
2019-03-20T16:35:11.278Z,13.30
2019-03-20T16:37:39.951Z,13.80
2019-03-20T16:40:11.619Z,13.90
2019-03-20T16:42:40.352Z,14.00
2019-03-20T16:45:11.703Z,17.60
2019-03-20T16:47:40.359Z,16.53
2019-03-20T16:50:10.260Z,12.17
2019-03-20T16:52:38.925Z,16.60
2019-03-20T16:55:08.624Z,12.30
2019-03-20T16:57:37.263Z,13.00
2019-03-20T17:00:07.335Z,19.47
2019-03-20T17:02:36.233Z,13.73
2019-03-20T17:05:05.220Z,15.67
2019-03-20T17:07:33.867Z,17.87
2019-03-20T17:10:02.680Z,15.80
2019-03-20T17:12:31.327Z,16.53
2019-03-20T17:14:59.990Z,15.90
2019-03-20T17:17:28.927Z,19.83
2019-03-20T17:19:57.586Z,19.67
2019-03-20T17:22:26.248Z,15.40
2019-03-20T17:24:54.893Z,16.60
2019-03-20T17:27:23.579Z,20.90
2019-03-20T17:29:52.283Z,18.10
2019-03-20T17:32:21.153Z,15.90
2019-03-20T17:34:49.878Z,20.10
2019-03-20T17:37:18.482Z,17.73
2019-03-20T17:39:49.166Z,22.73
2019-03-20T17:42:17.485Z,23.00
2019-03-20T17:44:46.355Z,21.20
2019-03-20T17:47:14.990Z,16.60
2019-03-20T17:49:43.635Z,24.60
2019-03-20T17:52:12.303Z,15.90
2019-03-20T17:54:40.944Z,18.17
2019-03-20T17:57:09.584Z,18.70
2019-03-20T17:59:38.242Z,17.50
2019-03-20T18:02:06.859Z,17.17
2019-03-20T18:04:35.520Z,16.17
2019-03-20T18:07:04.245Z,23.80
2019-03-20T18:09:32.911Z,19.70
2019-03-20T18:12:01.856Z,21.10
2019-03-20T18:14:30.503Z,17.80
2019-03-20T18:16:59.147Z,17.50
2019-03-20T18:19:27.827Z,14.77
2019-03-20T18:21:56.451Z,18.43
2019-03-20T18:24:25.107Z,18.27
2019-03-20T18:26:54.581Z,20.13
2019-03-20T18:29:23.540Z,19.60
2019-03-20T18:31:52.608Z,18.60
2019-03-20T18:34:21.292Z,21.37
2019-03-20T18:36:49.945Z,18.60
2019-03-20T18:39:20.578Z,18.00
2019-03-20T18:41:57.425Z,24.10
2019-03-20T18:44:19.349Z,20.00
2019-03-20T18:46:47.983Z,21.67
2019-03-20T18:49:16.780Z,20.90
2019-03-20T18:51:45.418Z,23.80
2019-03-20T18:54:14.074Z,20.97
2019-03-20T18:56:42.753Z,19.57
2019-03-20T18:59:11.406Z,21.97
2019-03-20T19:01:40.113Z,19.30
2019-03-20T19:04:08.744Z,21.37
2019-03-20T19:06:37.472Z,22.90
2019-03-20T19:09:08.476Z,20.10
2019-03-20T19:11:37.270Z,23.67
2019-03-20T19:14:06.001Z,19.13
2019-03-20T19:16:34.631Z,22.93
2019-03-20T19:19:03.372Z,21.20
2019-03-20T19:21:32.014Z,24.40
2019-03-20T19:24:00.660Z,22.43
2019-03-20T19:26:31.005Z,20.63
2019-03-20T19:28:59.776Z,23.10
2019-03-20T19:31:28.418Z,20.43
2019-03-20T19:33:57.062Z,22.87
2019-03-20T19:36:25.726Z,23.23
2019-03-20T19:38:54.386Z,25.87
2019-03-20T19:41:23.040Z,24.30
2019-03-20T19:43:51.695Z,27.00
2019-03-20T19:46:20.347Z,20.37
2019-03-20T19:48:48.963Z,24.80
2019-03-20T19:51:17.721Z,24.77
2019-03-20T19:53:46.369Z,23.43
2019-03-20T19:56:15.256Z,25.90
2019-03-20T19:58:43.923Z,24.40
2019-03-20T20:01:12.588Z,30.80
2019-03-20T20:03:41.225Z,27.63
2019-03-20T20:06:11.358Z,26.93
2019-03-20T20:08:40.159Z,27.03
2019-03-20T20:11:08.844Z,26.13
2019-03-20T20:13:37.512Z,25.80
2019-03-20T20:16:06.179Z,26.57
2019-03-20T20:18:34.824Z,29.87
2019-03-20T20:21:03.570Z,28.53
2019-03-20T20:23:32.218Z,31.93
2019-03-20T20:26:00.880Z,31.23
2019-03-20T20:28:29.548Z,29.30
2019-03-20T20:30:58.179Z,27.40
2019-03-20T20:33:27.113Z,37.17
2019-03-20T20:35:55.774Z,29.97
2019-03-20T20:38:24.419Z,30.80
2019-03-20T20:40:53.113Z,27.90
2019-03-20T20:43:21.786Z,29.00
2019-03-20T20:45:50.431Z,29.30
2019-03-20T20:48:19.088Z,31.07
2019-03-20T20:50:47.797Z,33.50
2019-03-20T20:53:16.435Z,32.10
2019-03-20T20:55:45.109Z,26.97
2019-03-20T20:58:13.796Z,32.50
2019-03-20T21:00:42.443Z,30.20
2019-03-20T21:03:11.084Z,30.10
2019-03-20T21:05:39.730Z,31.67
2019-03-20T21:08:08.441Z,30.53
2019-03-20T21:10:37.900Z,31.40
2019-03-20T21:13:06.556Z,35.97
2019-03-20T21:15:40.647Z,29.47
2019-03-20T21:18:46.505Z,31.97
2019-03-20T21:24:11.927Z,29.27
2019-03-20T21:26:54.336Z,35.90
2019-03-20T21:29:57.742Z,32.17
2019-03-20T21:32:34.928Z,37.10
2019-03-20T21:35:52.848Z,39.30
2019-03-20T21:38:20.276Z,36.37
2019-03-20T21:41:32.439Z,33.47
2019-03-20T21:44:25.785Z,33.60
2019-03-20T21:47:20.993Z,38.17
2019-03-20T21:49:50.532Z,35.73
2019-03-20T21:52:19.788Z,38.60
2019-03-20T21:55:28.932Z,35.23
2019-03-20T21:58:12.195Z,39.50
2019-03-20T22:01:17.088Z,42.40
2019-03-20T22:03:46.285Z,36.17
2019-03-20T22:06:45.977Z,43.00
2019-03-20T22:09:31.393Z,43.47
2019-03-20T22:12:19.903Z,42.17
2019-03-20T22:14:56.493Z,44.87
2019-03-20T22:17:54.483Z,53.90
2019-03-20T22:20:40.047Z,47.00
2019-03-20T22:23:56.901Z,42.90
2019-03-20T22:26:42.343Z,48.17
2019-03-20T22:29:21.489Z,45.30
2019-03-20T22:32:11.952Z,43.97
2019-03-20T22:35:17.993Z,46.00
2019-03-20T22:37:47.256Z,58.43
2019-03-20T22:41:03.643Z,50.53
2019-03-20T22:43:39.252Z,45.93
2019-03-20T22:46:45.587Z,52.30
2019-03-20T22:50:20.255Z,47.23
2019-03-20T22:53:19.390Z,46.13
2019-03-20T22:56:02.182Z,47.90
2019-03-20T22:58:42.811Z,60.53
2019-03-20T23:01:25.571Z,59.87
2019-03-20T23:04:02.347Z,55.47
2019-03-20T23:06:31.543Z,52.47
2019-03-20T23:09:00.848Z,57.83
2019-03-20T23:11:30.044Z,57.17
2019-03-20T23:13:59.257Z,57.83
2019-03-20T23:16:28.468Z,56.50
2019-03-20T23:18:57.617Z,58.63
2019-03-20T23:21:27.165Z,60.20
2019-03-20T23:23:56.369Z,54.87
2019-03-20T23:26:25.624Z,53.63
2019-03-20T23:28:54.800Z,48.53
2019-03-20T23:31:24.024Z,54.43
2019-03-20T23:33:53.264Z,53.90
2019-03-20T23:36:22.467Z,56.80
2019-03-20T23:38:51.936Z,55.20
2019-03-20T23:41:21.111Z,54.97
2019-03-20T23:43:53.276Z,54.43
2019-03-20T23:46:21.201Z,54.93
2019-03-20T23:48:54.336Z,58.57
2019-03-20T23:51:24.454Z,57.17
2019-03-20T23:53:55.087Z,59.27
2019-03-20T23:56:25.672Z,55.60
2019-03-20T23:58:55.147Z,62.37
